createdAt,value
2022-10-31T00:03:09.628Z,90.55
2022-10-31T00:08:11.155Z,90.81
2022-10-31T00:13:13.797Z,90.99
2022-10-31T00:18:15.331Z,90.76
2022-10-31T00:23:16.818Z,90.78
2022-10-31T00:33:20.792Z,91.04
2022-10-31T00:38:22.300Z,90.77
2022-10-31T00:43:24.127Z,91.31
2022-10-31T00:48:25.631Z,91.34
2022-10-31T00:53:28.127Z,91.86
2022-10-31T00:58:29.747Z,91.37
2022-10-31T01:03:33.158Z,91.77
2022-10-31T01:08:36.035Z,91.53
2022-10-31T01:13:38.046Z,91.21
2022-10-31T01:18:39.645Z,91.44
2022-10-31T01:23:42.590Z,91.48
2022-10-31T01:28:53.229Z,91.29
2022-10-31T01:33:55.715Z,92.78
2022-10-31T01:38:59.612Z,92.13
2022-10-31T01:44:14.430Z,92.46
2022-10-31T01:49:38.375Z,91.48
2022-10-31T01:54:47.050Z,91.94
2022-10-31T01:59:52.414Z,92.13
2022-10-31T02:04:54.418Z,92.12
2022-10-31T02:09:56.275Z,91.53
2022-10-31T02:14:59.367Z,91.81
2022-10-31T02:20:17.671Z,91.77
2022-10-31T02:25:43.941Z,91.62
2022-10-31T02:30:48.536Z,93.08
2022-10-31T02:36:13.690Z,93.55
2022-10-31T02:41:59.897Z,93.02
2022-10-31T02:47:13.474Z,92.17
2022-10-31T02:52:24.941Z,92.27
2022-10-31T02:57:31.941Z,92.03
2022-10-31T03:02:44.436Z,92.15
2022-10-31T03:07:56.274Z,92.62
2022-10-31T03:13:16.146Z,92.60
2022-10-31T03:18:29.373Z,91.90
2022-10-31T03:23:35.459Z,92.00
2022-10-31T03:29:04.022Z,91.64
2022-10-31T03:34:07.159Z,91.52
2022-10-31T03:39:12.722Z,91.53
2022-10-31T03:44:18.669Z,91.33
2022-10-31T03:49:24.532Z,91.13
2022-10-31T03:54:57.156Z,91.46
2022-10-31T04:00:10.938Z,90.67
2022-10-31T04:05:21.698Z,91.43
2022-10-31T04:10:28.644Z,90.95
2022-10-31T04:15:34.551Z,90.98
2022-10-31T04:20:38.539Z,91.51
2022-10-31T04:25:40.582Z,91.50
2022-10-31T04:30:42.172Z,91.61
2022-10-31T04:35:43.799Z,90.82
2022-10-31T04:40:46.418Z,91.00
2022-10-31T04:46:10.572Z,90.95
2022-10-31T04:51:12.562Z,91.69
2022-10-31T04:56:14.088Z,91.13
2022-10-31T05:01:19.575Z,91.03
2022-10-31T05:06:21.252Z,90.50
2022-10-31T05:11:22.904Z,91.32
2022-10-31T05:16:24.448Z,91.69
2022-10-31T05:22:04.153Z,91.40
2022-10-31T05:27:07.770Z,90.20
2022-10-31T05:32:09.693Z,91.83
2022-10-31T05:37:34.025Z,90.78
2022-10-31T05:42:35.751Z,91.54
2022-10-31T05:47:37.254Z,90.81
2022-10-31T05:53:04.094Z,91.24
2022-10-31T05:58:11.536Z,91.13
2022-10-31T06:03:15.644Z,90.21
2022-10-31T06:08:22.122Z,90.62
2022-10-31T06:13:24.636Z,90.55
2022-10-31T06:18:34.315Z,90.08
2022-10-31T06:23:36.111Z,91.38
2022-10-31T06:29:03.992Z,90.94
2022-10-31T06:34:44.312Z,91.35
2022-10-31T06:39:45.947Z,91.05
2022-10-31T06:44:49.583Z,90.44
2022-10-31T06:50:09.525Z,89.90
2022-10-31T06:55:11.698Z,89.44
2022-10-31T07:00:13.429Z,90.02
2022-10-31T07:05:19.431Z,90.37
2022-10-31T07:10:23.903Z,89.70
2022-10-31T07:15:35.449Z,89.42
2022-10-31T07:20:37.158Z,89.19
2022-10-31T07:25:39.804Z,89.40
2022-10-31T07:30:54.194Z,89.28
2022-10-31T07:35:56.833Z,88.94
2022-10-31T07:41:04.609Z,88.19
2022-10-31T07:46:12.626Z,87.73
2022-10-31T07:51:49.207Z,88.58
2022-10-31T07:57:28.443Z,89.01
2022-10-31T08:02:32.249Z,87.91
2022-10-31T08:07:52.639Z,87.74
2022-10-31T08:13:10.797Z,87.65
2022-10-31T08:18:15.909Z,88.34
2022-10-31T08:23:18.104Z,87.71
2022-10-31T08:28:20.176Z,87.91
2022-10-31T08:33:25.746Z,87.35
2022-10-31T08:39:01.427Z,87.31
2022-10-31T08:44:04.255Z,87.18
2022-10-31T08:49:06.952Z,87.03
2022-10-31T08:54:08.877Z,88.01
2022-10-31T08:59:28.847Z,87.30
2022-10-31T09:04:59.537Z,87.75
2022-10-31T09:10:01.230Z,87.48
2022-10-31T09:15:08.283Z,87.67
2022-10-31T09:20:21.442Z,87.33
2022-10-31T09:25:23.148Z,87.25
2022-10-31T09:30:36.499Z,86.99
2022-10-31T09:35:38.386Z,86.61
2022-10-31T09:40:45.102Z,86.49
2022-10-31T09:46:02.969Z,86.17
2022-10-31T09:51:24.552Z,86.30
2022-10-31T09:56:33.433Z,85.93
2022-10-31T10:01:39.458Z,85.86
2022-10-31T10:06:45.367Z,85.38
2022-10-31T10:12:36.940Z,84.93
2022-10-31T10:17:50.349Z,84.63
2022-10-31T10:22:58.793Z,84.39
2022-10-31T10:28:08.044Z,84.46
2022-10-31T10:33:12.787Z,84.62
2022-10-31T10:38:45.437Z,84.44
2022-10-31T10:43:49.209Z,83.73
2022-10-31T10:49:15.341Z,82.13
2022-10-31T10:54:22.554Z,82.61
2022-10-31T10:59:24.147Z,82.15
2022-10-31T11:04:34.998Z,81.47
2022-10-31T11:09:37.224Z,82.07
2022-10-31T11:14:48.976Z,82.61
2022-10-31T11:20:01.131Z,82.71
2022-10-31T11:25:22.469Z,83.10
2022-10-31T11:30:23.963Z,83.44
2022-10-31T11:35:25.816Z,83.79
2022-10-31T11:40:28.592Z,84.24
2022-10-31T11:45:34.761Z,84.08
2022-10-31T11:50:39.600Z,83.76
2022-10-31T11:55:41.099Z,83.54
2022-10-31T12:00:50.580Z,82.86
2022-10-31T12:05:59.973Z,81.46
2022-10-31T12:11:24.054Z,82.49
2022-10-31T12:16:30.063Z,81.96
2022-10-31T12:21:58.036Z,82.11
2022-10-31T12:27:12.705Z,81.36
2022-10-31T12:32:31.678Z,81.15
2022-10-31T12:37:51.725Z,80.03
2022-10-31T12:43:09.308Z,79.33
2022-10-31T12:48:29.734Z,79.58
2022-10-31T12:53:54.155Z,79.75
2022-10-31T12:59:15.996Z,78.61
2022-10-31T13:05:02.364Z,78.14
2022-10-31T13:10:10.068Z,77.76
2022-10-31T13:15:20.865Z,77.54
2022-10-31T13:20:31.734Z,76.98
2022-10-31T13:25:39.394Z,77.62
2022-10-31T13:30:42.575Z,77.27
2022-10-31T13:35:46.684Z,76.85
2022-10-31T13:41:00.340Z,77.16
2022-10-31T13:46:01.913Z,76.90
2022-10-31T13:51:08.109Z,76.40
2022-10-31T13:56:09.553Z,75.83
2022-10-31T14:01:11.146Z,75.53
2022-10-31T14:06:13.101Z,76.08
2022-10-31T14:11:36.122Z,75.98
2022-10-31T14:16:39.968Z,75.63
2022-10-31T14:21:46.511Z,75.63
2022-10-31T14:26:58.069Z,75.68
2022-10-31T14:32:11.808Z,75.82
2022-10-31T14:37:40.710Z,75.94
2022-10-31T14:42:59.195Z,76.05
2022-10-31T14:48:43.232Z,76.05
2022-10-31T14:53:56.442Z,76.07
2022-10-31T14:59:01.885Z,76.01
2022-10-31T15:04:23.701Z,76.32
2022-10-31T15:09:34.569Z,76.53
2022-10-31T15:14:36.140Z,76.88
2022-10-31T15:19:38.688Z,77.20
2022-10-31T15:24:40.264Z,77.65
2022-10-31T15:29:54.792Z,77.97
2022-10-31T15:34:57.867Z,78.30
2022-10-31T15:40:08.245Z,79.28
2022-10-31T15:45:12.646Z,79.86
2022-10-31T15:50:29.454Z,80.24
2022-10-31T15:55:35.509Z,80.20
2022-10-31T16:00:39.343Z,81.02
2022-10-31T16:05:40.839Z,81.28
2022-10-31T16:10:42.392Z,81.83
2022-10-31T16:16:21.316Z,81.71
2022-10-31T16:21:37.983Z,82.04
2022-10-31T16:26:39.455Z,82.30
2022-10-31T16:31:41.108Z,82.79
2022-10-31T16:36:42.973Z,82.77
2022-10-31T16:41:47.131Z,82.69
2022-10-31T16:46:48.723Z,82.59
2022-10-31T16:51:50.235Z,83.50
2022-10-31T16:56:51.760Z,85.48
2022-10-31T17:01:55.433Z,85.67
2022-10-31T17:06:57.016Z,85.20
2022-10-31T17:11:58.679Z,85.88
2022-10-31T17:17:00.162Z,86.12
2022-10-31T17:22:02.461Z,86.56
2022-10-31T17:27:03.971Z,86.98
2022-10-31T17:32:05.674Z,86.93
2022-10-31T17:37:07.733Z,87.35
2022-10-31T17:42:09.284Z,87.74
2022-10-31T17:47:10.787Z,87.42
2022-10-31T17:52:12.291Z,88.17
2022-10-31T17:57:14.126Z,88.06
2022-10-31T18:02:15.969Z,88.05
2022-10-31T18:07:19.326Z,87.83
2022-10-31T18:12:20.882Z,88.42
2022-10-31T18:17:22.453Z,88.17
2022-10-31T18:22:23.939Z,88.55
2022-10-31T18:27:26.846Z,88.70
2022-10-31T18:32:28.437Z,88.60
2022-10-31T18:37:29.992Z,89.18
2022-10-31T18:42:31.625Z,89.25
2022-10-31T18:47:33.150Z,88.96
2022-10-31T18:52:34.663Z,89.78
2022-10-31T18:57:36.258Z,89.70
2022-10-31T19:02:38.704Z,89.75
2022-10-31T19:07:40.227Z,90.05
2022-10-31T19:12:41.716Z,90.02
2022-10-31T19:17:43.208Z,90.27
2022-10-31T19:22:44.700Z,90.99
2022-10-31T19:27:46.247Z,90.56
2022-10-31T19:32:47.999Z,91.14
2022-10-31T19:37:49.494Z,91.12
2022-10-31T19:42:51.019Z,91.16
2022-10-31T19:47:52.506Z,90.87
2022-10-31T19:52:54.017Z,91.65
2022-10-31T19:58:01.823Z,91.43
2022-10-31T20:03:04.114Z,91.69
2022-10-31T20:08:05.901Z,91.44
2022-10-31T20:13:07.447Z,92.04
2022-10-31T20:18:08.994Z,91.63
2022-10-31T20:23:11.191Z,92.78
2022-10-31T20:28:12.708Z,93.56
2022-10-31T20:33:14.241Z,92.85
2022-10-31T20:38:15.805Z,92.89
2022-10-31T20:43:18.409Z,93.37
2022-10-31T20:48:20.487Z,92.93
2022-10-31T20:53:21.961Z,91.82
2022-10-31T20:58:23.464Z,93.35
2022-10-31T21:03:26.090Z,92.63
2022-10-31T21:08:29.381Z,91.75
2022-10-31T21:13:31.868Z,92.08
2022-10-31T21:18:36.252Z,92.36
2022-10-31T21:23:38.057Z,92.79
2022-10-31T21:28:40.138Z,93.49
2022-10-31T21:33:42.313Z,92.71
2022-10-31T21:38:43.854Z,92.79
2022-10-31T21:43:47.957Z,93.00
2022-10-31T21:48:49.820Z,92.57
2022-10-31T21:54:10.463Z,93.87
2022-10-31T21:59:12.428Z,94.37
2022-10-31T22:04:13.942Z,94.24
2022-10-31T22:09:16.103Z,94.84
2022-10-31T22:14:17.645Z,95.27
2022-10-31T22:19:19.165Z,93.54
2022-10-31T22:24:20.649Z,93.77
2022-10-31T22:29:23.032Z,94.40
2022-10-31T22:34:24.529Z,96.41
2022-10-31T22:39:26.075Z,94.80
2022-10-31T22:44:27.569Z,95.14
2022-10-31T22:49:29.840Z,95.41
2022-10-31T22:54:31.952Z,95.34
2022-10-31T22:59:33.461Z,95.69
2022-10-31T23:04:34.978Z,95.62
2022-10-31T23:09:36.512Z,96.33
2022-10-31T23:14:38.018Z,95.39
2022-10-31T23:19:40.594Z,96.50
2022-10-31T23:24:44.413Z,96.15
2022-10-31T23:29:50.221Z,97.55
2022-10-31T23:34:53.796Z,97.23
2022-10-31T23:39:55.763Z,98.34
2022-10-31T23:44:58.118Z,97.56
2022-10-31T23:49:59.600Z,96.86
2022-10-31T23:55:01.095Z,97.12
